Limon High School, Colorado
Current Conditions -  °F | °C
As of 8:55 AM on Thursday 27 Nov 2014 (Local Time) from KLIC Reporting Station
Clear Clear  
Wind Chill: 37°   Ceiling: Unl
Heat Index: 37°   Visibility: 10mi
Dew Point: 27°   Wind: 0mph
Humidity: 67%   Direction: NA
Pressure: 30.26"   Gusts: NA
Location:  39.26873°N, 103.6892°W
Report Text: KLIC 271555Z AUTO 00000KT 10SM CLR 03/M03 A3026 RMK AO2 SLP258 T00281028
Loading
Personal Weather Stations






























Interactive Weather Map New forecast layout! Learn more

10-Day Weather Forecast

Advertisements
Track Severe Weather on mobile